WET,Max TemperatureF,Mean TemperatureF,Min TemperatureF,Max Dew PointF,MeanDew PointF,Min DewpointF,Max Humidity, Mean Humidity, Min Humidity, Max Sea Level PressureIn, Mean Sea Level PressureIn, Min Sea Level PressureIn, Max VisibilityMiles, Mean VisibilityMiles, Min VisibilityMiles, Max Wind SpeedMPH, Mean Wind SpeedMPH, Max Gust SpeedMPH,PrecipitationIn, CloudCover, Events, WindDirDegrees
2012-11-1,83,72,60,54,46,35,72,40,15,30.01,29.92,29.83,12,8,6,21,7,,0.00,3,,267
2012-11-2,81,70,59,50,46,43,59,35,18,30.18,30.12,30.09,12,8,6,9,3,,0.00,4,,233
2012-11-3,85,74,63,52,48,45,64,36,17,30.21,30.15,30.12,12,8,6,7,4,,0.00,5,,226
2012-11-4,85,73,61,50,48,46,63,36,17,30.24,30.18,30.12,12,8,6,9,3,,0.00,4,,266
2012-11-5,85,74,62,54,47,41,72,35,14,30.15,30.10,30.06,12,9,6,9,4,,0.00,2,,216
2012-11-6,84,72,60,54,45,39,63,34,12,30.15,30.10,30.06,12,8,6,21,5,,0.00,3,Rain,227
2012-11-7,83,72,62,50,46,38,63,39,12,30.24,30.19,30.12,12,9,6,14,2,,0.00,1,,220
2012-11-8,76,70,64,46,41,39,43,29,17,30.21,30.12,30.09,12,8,6,14,7,,0.00,6,,75
2012-11-9,64,62,59,56,53,48,82,70,47,30.15,30.08,30.01,9,6,4,14,9,,0.28,3,Rain,86
2012-11-10,70,62,55,54,39,28,94,42,14,30.01,29.92,29.86,12,8,6,18,14,,0.00,4,,16
2012-11-11,72,59,46,45,37,28,82,46,12,30.01,29.85,29.68,12,8,6,28,9,40,0.00,2,,297
2012-11-12,59,51,43,30,27,23,49,34,19,30.01,29.91,29.86,12,8,6,21,14,34,0.00,2,,357
2012-11-13,70,59,48,41,33,27,66,36,11,30.04,30.01,29.98,12,8,6,16,7,,0.00,1,,9
2012-11-14,67,54,42,39,34,30,81,41,17,30.09,30.03,30.01,12,12,9,5,3,,0.00,,,162
2012-11-15,69,56,44,39,33,28,76,37,12,30.09,30.06,30.01,12,12,9,9,4,,0.00,,,245
2012-11-16,71,60,48,37,28,22,66,29,8,30.12,30.05,30.01,12,9,6,9,4,,0.00,4,,226
2012-11-17,70,52,35,41,33,28,75,35,12,29.95,29.89,29.80,12,8,6,10,5,,0.00,3,,214
2012-11-18,66,58,50,49,42,34,82,54,26,29.95,29.86,29.83,12,8,6,14,6,,0.00,3,,140
2012-11-19,66,54,42,40,35,30,76,43,16,30.12,30.09,30.04,12,9,6,10,4,,0.00,1,,270
2012-11-20,67,54,42,43,38,34,81,47,20,30.21,30.16,30.12,12,10,6,9,4,,0.00,1,,290
2012-11-21,70,57,44,39,34,27,76,39,14,30.21,30.13,30.09,12,10,6,7,3,,0.00,6,,178
2012-11-22,70,60,50,39,36,32,66,36,16,30.21,30.17,30.12,12,8,6,10,5,,0.00,2,,102
2012-11-23,69,57,45,41,37,34,81,43,20,30.24,30.19,30.15,12,9,6,7,3,,0.00,1,,166
2012-11-24,67,56,45,41,39,37,71,46,23,30.27,30.21,30.18,12,9,2,5,2,,0.00,6,,264
2012-11-25,65,54,44,38,37,35,76,46,23,30.24,30.19,30.12,12,12,12,8,2,,0.00,,,217
2012-11-26,66,56,45,39,37,36,66,46,25,30.18,30.10,30.04,12,9,6,9,3,,0.00,4,,193
2012-11-27,69,58,47,43,35,23,76,42,13,29.92,29.85,29.74,12,8,6,24,8,36,0.00,5,,303
2012-11-28,61,54,48,27,24,21,38,26,14,29.92,29.87,29.83,12,9,6,18,11,,0.00,1,,250
2012-11-29,62,50,39,32,24,17,61,32,9,29.98,29.92,29.86,12,8,6,16,5,,0.00,2,,274
2012-11-30,60,50,39,30,26,21,56,34,18,29.89,29.78,29.65,12,8,6,21,6,,0.00,2,,256